Mise à jour: Mardi, 31 août 2010, 04h30 (UTC+4)
Trajectoire complète du système 07 07 TEMPETE tropicale moderée DAVID
Date et Heure
en UTC
(soit H+4
à La Réunion)
Longit.


(°Est)
Latitude


(°Sud)
Intensité
Dvorak
analysée
(1.0/8.0)

Type de système
analysé

Pression
minimale
estimée
(hPa)
Vent moyen
sur 10'
maxi estimé
(noeud,km/h)
Rafales
maximales
associées
(noeud,km/h)
12/12/2009 12:00 84.60 7.39 1.5 Zone perturbée 1005 20 kt, 37 km/h 28 kt, 52 km/h
12/12/2009 18:00 84.30 8.42 1.5 Zone perturbée 1004 20 kt, 37 km/h 28 kt, 52 km/h
13/12/2009 00:00 84.20 9.51 2.0 Perturbation tropicale 1002 25 kt, 46 km/h 35 kt, 65 km/h
13/12/2009 06:00 83.80 10.35 2.0 Perturbation tropicale 1002 25 kt, 46 km/h 35 kt, 65 km/h
13/12/2009 12:00 83.02 11.20 2.0 Perturbation tropicale 1002 25 kt, 46 km/h 35 kt, 65 km/h
13/12/2009 18:00 82.25 11.92 2.0 Perturbation tropicale 1003 23 kt, 42 km/h 32 kt, 60 km/h
14/12/2009 00:00 81.65 12.41 1.5 Zone perturbée 1004 20 kt, 37 km/h 28 kt, 52 km/h
14/12/2009 06:00 81.00 13.06 1.5 Zone perturbée 1005 20 kt, 37 km/h 28 kt, 52 km/h
14/12/2009 12:00 80.30 13.77 1.5 Zone perturbée 1006 20 kt, 37 km/h 28 kt, 52 km/h
14/12/2009 18:00 79.15 14.48 1.5 Zone perturbée 1006 20 kt, 37 km/h 28 kt, 52 km/h
15/12/2009 00:00 78.30 14.66 1.5 Zone perturbée 1005 20 kt, 37 km/h 28 kt, 52 km/h
15/12/2009 06:00 77.68 14.79 2.0 Perturbation tropicale 1004 23 kt, 42 km/h 32 kt, 60 km/h
15/12/2009 12:00 76.93 15.08 2.0 Perturbation tropicale 1004 23 kt, 42 km/h 32 kt, 60 km/h
15/12/2009 18:00 76.21 15.00 2.0 Perturbation tropicale 1004 23 kt, 42 km/h 32 kt, 60 km/h
16/12/2009 00:00 75.45 14.89 2.0 Perturbation tropicale 1004 23 kt, 42 km/h 32 kt, 60 km/h
16/12/2009 06:00 74.71 14.79 1.5 Perturbation tropicale 1006 20 kt, 37 km/h 28 kt, 52 km/h
16/12/2009 12:00 73.87 14.54 1.5 Perturbation tropicale 1006 20 kt, 37 km/h 28 kt, 52 km/h
16/12/2009 18:00 72.75 14.10 1.5 Perturbation tropicale 1006 20 kt, 37 km/h 28 kt, 52 km/h
17/12/2009 00:00 71.60 13.64 2.0 Perturbation tropicale 1004 23 kt, 42 km/h 32 kt, 60 km/h
17/12/2009 06:00 70.90 13.37 2.0 Perturbation tropicale 1004 23 kt, 42 km/h 32 kt, 60 km/h
17/12/2009 12:00 70.24 13.10 2.0 Perturbation tropicale 1004 23 kt, 42 km/h 32 kt, 60 km/h
17/12/2009 18:00 69.32 12.99 1.5 Perturbation tropicale 1005 20 kt, 37 km/h 28 kt, 52 km/h
18/12/2009 00:00 68.56 12.58 1.5 Perturbation tropicale 1005 20 kt, 37 km/h 28 kt, 52 km/h
18/12/2009 06:00 67.94 11.95 1.5 Perturbation tropicale 1005 20 kt, 37 km/h 28 kt, 52 km/h
18/12/2009 12:00 67.15 11.62 1.5 Perturbation tropicale 1005 20 kt, 37 km/h 28 kt, 52 km/h
18/12/2009 18:00 66.34 11.58 1.5 Perturbation tropicale 1005 20 kt, 37 km/h 28 kt, 52 km/h
19/12/2009 00:00 65.65 11.78 1.5 Perturbation tropicale 1005 20 kt, 37 km/h 28 kt, 52 km/h
19/12/2009 06:00 64.87 11.96 1.5 Perturbation tropicale 1006 20 kt, 37 km/h 28 kt, 52 km/h
19/12/2009 12:00 64.13 11.96 1.5 Perturbation tropicale 1006 20 kt, 37 km/h 28 kt, 52 km/h
19/12/2009 18:00 63.55 11.68 1.5 Perturbation tropicale 1005 20 kt, 37 km/h 28 kt, 52 km/h
20/12/2009 00:00 63.02 11.36 2.0 Perturbation tropicale 1004 23 kt, 42 km/h 32 kt, 60 km/h
20/12/2009 06:00 62.40 11.12 2.0 Perturbation tropicale 1003 25 kt, 46 km/h 35 kt, 65 km/h
20/12/2009 12:00 61.96 11.04 2.0 Perturbation tropicale 1002 25 kt, 46 km/h 35 kt, 65 km/h
20/12/2009 18:00 61.85 10.73 2.0 Perturbation tropicale 1000 27 kt, 50 km/h 38 kt, 70 km/h
21/12/2009 00:00 62.00 10.58 2.5 DEPRESSION tropicale 998 30 kt, 55 km/h 42 kt, 78 km/h
21/12/2009 06:00 62.33 10.57 2.5 DEPRESSION tropicale 998 30 kt, 55 km/h 42 kt, 78 km/h
21/12/2009 12:00 62.90 10.79 2.5 DEPRESSION tropicale 997 30 kt, 55 km/h 42 kt, 78 km/h
21/12/2009 18:00 63.55 11.13 2.5 TEMPETE tropicale moderée 994 35 kt, 64 km/h 49 kt, 91 km/h
22/12/2009 00:00 64.17 11.40 3.0 TEMPETE tropicale moderée 991 40 kt, 74 km/h 56 kt, 104 km/h
22/12/2009 06:00 65.01 11.80 3.0 TEMPETE tropicale moderée 990 42 kt, 77 km/h 59 kt, 109 km/h
22/12/2009 12:00 66.15 12.60 3.0 TEMPETE tropicale moderée 990 42 kt, 77 km/h 59 kt, 109 km/h
22/12/2009 18:00 67.02 13.09 3.5 TEMPETE tropicale moderée 987 45 kt, 83 km/h 63 kt, 117 km/h
23/12/2009 00:00 67.83 13.33 3.5 TEMPETE tropicale moderée 987 45 kt, 83 km/h 63 kt, 117 km/h
23/12/2009 06:00 68.10 13.60 3.5 TEMPETE tropicale moderée 988 45 kt, 83 km/h 63 kt, 117 km/h
23/12/2009 12:00 68.41 13.94 3.0 TEMPETE tropicale moderée 990 42 kt, 77 km/h 59 kt, 109 km/h
23/12/2009 18:00 69.08 14.30 3.0 TEMPETE tropicale moderée 990 42 kt, 77 km/h 59 kt, 109 km/h
24/12/2009 00:00 69.79 14.54 3.0 TEMPETE tropicale moderée 990 42 kt, 77 km/h 59 kt, 109 km/h
24/12/2009 06:00 70.31 14.60 3.5 TEMPETE tropicale moderée 987 45 kt, 83 km/h 63 kt, 117 km/h
24/12/2009 12:00 70.69 14.60 3.5 TEMPETE tropicale moderée 987 45 kt, 83 km/h 63 kt, 117 km/h
24/12/2009 18:00 70.75 14.43 3.0 TEMPETE tropicale moderée 990 43 kt, 79 km/h 60 kt, 112 km/h
25/12/2009 00:00 70.74 14.14 3.0 TEMPETE tropicale moderée 993 37 kt, 68 km/h 52 kt, 96 km/h
25/12/2009 06:00 70.69 13.73 2.5 DEPRESSION tropicale 997 30 kt, 55 km/h 42 kt, 78 km/h
25/12/2009 12:00 71.42 13.61 2.0 Perturbation tropicale 999 27 kt, 50 km/h 38 kt, 70 km/h
25/12/2009 18:00 71.49 14.03 2.0 Perturbation tropicale 1000 25 kt, 46 km/h 35 kt, 65 km/h
26/12/2009 00:00 71.04 14.36 2.0 Perturbation tropicale 1001 25 kt, 46 km/h 35 kt, 65 km/h
26/12/2009 06:00 70.44 14.24 1.5 Perturbation tropicale 1002 23 kt, 42 km/h 32 kt, 60 km/h
26/12/2009 12:00 69.90 14.08 1.5 Perturbation tropicale 1002 23 kt, 42 km/h 32 kt, 60 km/h
26/12/2009 18:00 69.71 13.96   DEPRESSION se comblant 1003 20 kt, 37 km/h 28 kt, 52 km/h
27/12/2009 00:00 69.18 14.03   DEPRESSION se comblant 1003 20 kt, 37 km/h 28 kt, 52 km/h
27/12/2009 06:00 68.35 14.22   DEPRESSION se comblant 1003 20 kt, 37 km/h 28 kt, 52 km/h
27/12/2009 12:00 67.43 14.27   DEPRESSION se comblant 1003 20 kt, 37 km/h 28 kt, 52 km/h
27/12/2009 18:00 66.27 14.34   DEPRESSION se comblant 1004 20 kt, 37 km/h 28 kt, 52 km/h
28/12/2009 00:00 65.22 14.45   DEPRESSION se comblant 1004 20 kt, 37 km/h 28 kt, 52 km/h
28/12/2009 06:00 64.32 14.60   DEPRESSION se comblant 1004 20 kt, 37 km/h 28 kt, 52 km/h
28/12/2009 12:00 62.88 14.81   DEPRESSION se comblant 1004 20 kt, 37 km/h 28 kt, 52 km/h
28/12/2009 18:00 61.38 15.26   DEPRESSION se comblant 1005 20 kt, 37 km/h 28 kt, 52 km/h
29/12/2009 00:00 59.80 16.30   DEPRESSION se comblant 1005 20 kt, 37 km/h 28 kt, 52 km/h
29/12/2009 06:00 58.65 17.07   DEPRESSION se comblant 1005 20 kt, 37 km/h 28 kt, 52 km/h
29/12/2009 12:00 57.27 17.57   DEPRESSION se comblant 1005 20 kt, 37 km/h 28 kt, 52 km/h
29/12/2009 18:00 55.83 17.43   DEPRESSION se comblant 1005 20 kt, 37 km/h 28 kt, 52 km/h
30/12/2009 00:00 54.95 17.24   DEPRESSION se comblant 1005 20 kt, 37 km/h 28 kt, 52 km/h
30/12/2009 06:00 54.52 17.04   DEPRESSION se comblant 1005 20 kt, 37 km/h 28 kt, 52 km/h
30/12/2009 12:00 53.79 16.76   DEPRESSION se comblant 1005 20 kt, 37 km/h 28 kt, 52 km/h
30/12/2009 18:00 52.52 16.36   DEPRESSION se comblant 1006 20 kt, 37 km/h 28 kt, 52 km/h
31/12/2009 00:00 51.75 16.12   DEPRESSION se comblant 1006 20 kt, 37 km/h 28 kt, 52 km/h
31/12/2009 06:00 51.17 15.94   DEPRESSION se comblant 1006 20 kt, 37 km/h 28 kt, 52 km/h